createdAt,value
2024-05-09T00:02:21.304Z,4.03
2024-05-09T00:07:26.918Z,4.90
2024-05-09T00:12:32.582Z,3.37
2024-05-09T00:17:38.355Z,3.00
2024-05-09T00:22:44.362Z,3.03
2024-05-09T00:27:50.099Z,4.27
2024-05-09T00:32:55.771Z,4.20
2024-05-09T00:38:02.046Z,4.13
2024-05-09T00:43:08.187Z,4.53
2024-05-09T00:48:18.571Z,4.43
2024-05-09T00:53:23.015Z,3.73
2024-05-09T00:58:30.669Z,3.00
2024-05-09T01:03:36.397Z,4.03
2024-05-09T01:08:42.449Z,4.10
2024-05-09T01:13:48.176Z,3.23
2024-05-09T01:18:53.957Z,3.17
2024-05-09T01:23:59.705Z,4.17
2024-05-09T01:29:05.530Z,3.50
2024-05-09T01:34:11.437Z,4.10
2024-05-09T01:39:17.220Z,2.57
2024-05-09T01:44:22.972Z,3.20
2024-05-09T01:49:28.817Z,2.87
2024-05-09T01:54:34.422Z,6.43
2024-05-09T01:59:40.032Z,4.43
2024-05-09T02:04:50.694Z,4.57
2024-05-09T02:09:56.337Z,2.77
2024-05-09T02:15:01.907Z,3.80
2024-05-09T02:20:13.149Z,2.73
2024-05-09T02:25:15.711Z,3.07
2024-05-09T02:30:29.992Z,3.00
2024-05-09T02:35:28.938Z,2.70
2024-05-09T02:40:37.998Z,3.80
2024-05-09T02:45:42.177Z,3.53
2024-05-09T02:50:47.928Z,4.43
2024-05-09T02:55:53.709Z,4.03
2024-05-09T03:00:59.511Z,3.00
2024-05-09T03:06:05.551Z,4.33
2024-05-09T03:11:11.418Z,5.40
2024-05-09T03:16:17.285Z,3.63
2024-05-09T03:21:23.355Z,3.20
2024-05-09T03:26:28.996Z,3.33
2024-05-09T03:31:35.010Z,4.67
2024-05-09T03:36:43.963Z,3.63
2024-05-09T03:41:49.511Z,3.30
2024-05-09T03:46:55.193Z,3.10
2024-05-09T03:52:02.589Z,3.10
2024-05-09T03:57:08.152Z,4.00
2024-05-09T04:02:13.945Z,3.73
2024-05-09T04:07:19.592Z,3.60
2024-05-09T04:12:25.336Z,3.43
2024-05-09T04:17:31.446Z,3.33
2024-05-09T04:22:37.415Z,4.03
2024-05-09T04:27:43.074Z,5.63
2024-05-09T04:32:48.780Z,5.27
2024-05-09T04:37:54.776Z,6.63
2024-05-09T04:43:00.601Z,5.70
2024-05-09T04:48:07.053Z,5.43
2024-05-09T04:53:15.867Z,4.77
2024-05-09T04:58:21.795Z,4.27
2024-05-09T05:03:27.735Z,4.53
2024-05-09T05:08:33.782Z,3.97
2024-05-09T05:13:41.507Z,4.30
2024-05-09T05:18:46.924Z,3.98
2024-05-09T05:23:52.580Z,3.27
2024-05-09T05:28:58.320Z,3.87
2024-05-09T05:34:04.164Z,3.72
2024-05-09T05:39:09.991Z,3.70
2024-05-09T05:44:16.094Z,3.75
2024-05-09T05:49:21.940Z,3.80
2024-05-09T05:54:27.923Z,3.95
2024-05-09T05:59:33.695Z,3.70
2024-05-09T06:04:39.651Z,3.77
2024-05-09T06:09:47.619Z,3.40
2024-05-09T06:14:52.736Z,3.77
2024-05-09T06:19:58.465Z,3.77
2024-05-09T06:25:04.279Z,4.10
2024-05-09T06:30:21.140Z,3.98
2024-05-09T06:35:18.179Z,4.70
2024-05-09T06:40:29.299Z,3.83
2024-05-09T06:45:31.450Z,4.47
2024-05-09T06:50:38.859Z,4.25
2024-05-09T06:55:44.960Z,5.78
2024-05-09T07:00:50.880Z,2.95
2024-05-09T07:05:56.748Z,3.42
2024-05-09T07:11:02.614Z,3.17
2024-05-09T07:16:08.725Z,3.52
2024-05-09T07:21:14.700Z,3.30
2024-05-09T07:26:20.504Z,3.30
2024-05-09T07:31:27.895Z,3.27
2024-05-09T07:36:34.022Z,3.10
2024-05-09T07:41:39.705Z,3.45
2024-05-09T07:47:48.293Z,3.30
2024-05-09T07:53:21.118Z,3.65
2024-05-09T07:57:00.483Z,3.33
2024-05-09T08:02:07.216Z,3.10
2024-05-09T08:07:13.325Z,2.85
2024-05-09T08:12:19.067Z,2.87
2024-05-09T08:17:24.893Z,3.12
2024-05-09T08:22:32.368Z,3.50
2024-05-09T08:27:38.160Z,2.95
2024-05-09T08:32:45.587Z,2.60
2024-05-09T08:37:51.431Z,3.15
2024-05-09T08:42:58.950Z,3.25
2024-05-09T08:48:07.983Z,3.60
2024-05-09T08:53:15.380Z,2.72
2024-05-09T08:58:21.378Z,3.30
2024-05-09T09:03:30.525Z,3.20
2024-05-09T09:08:37.933Z,3.12
2024-05-09T09:13:43.868Z,2.85
2024-05-09T09:18:51.493Z,4.37
2024-05-09T09:23:57.835Z,3.70
2024-05-09T09:29:03.511Z,3.00
2024-05-09T09:34:10.455Z,3.65
2024-05-09T09:39:19.622Z,2.90
2024-05-09T09:44:26.367Z,2.90
2024-05-09T09:49:35.644Z,3.57
2024-05-09T09:54:43.242Z,3.40
2024-05-09T09:59:51.344Z,3.33
2024-05-09T10:04:57.494Z,3.30
2024-05-09T10:10:05.101Z,2.60
2024-05-09T10:15:11.536Z,4.47
2024-05-09T10:20:21.963Z,2.90
2024-05-09T10:25:25.435Z,3.47
2024-05-09T10:30:36.110Z,4.20
2024-05-09T10:35:39.420Z,3.10
2024-05-09T10:40:46.849Z,3.07
2024-05-09T10:45:53.674Z,3.00
2024-05-09T10:50:59.720Z,2.80
2024-05-09T10:56:06.092Z,2.80
2024-05-09T11:01:12.535Z,2.50
2024-05-09T11:06:19.252Z,2.70
2024-05-09T11:11:24.976Z,2.90
2024-05-09T11:16:30.849Z,2.60
2024-05-09T11:21:36.580Z,2.77
2024-05-09T11:26:43.855Z,3.00
2024-05-09T11:31:50.809Z,2.60
2024-05-09T11:36:56.701Z,3.10
2024-05-09T11:42:02.653Z,2.93
2024-05-09T11:47:08.604Z,2.53
2024-05-09T11:52:14.396Z,2.33
2024-05-09T11:57:20.241Z,3.30
2024-05-09T12:02:26.094Z,2.60
2024-05-09T12:07:31.896Z,2.67
2024-05-09T12:12:37.703Z,2.43
2024-05-09T12:17:44.152Z,3.00
2024-05-09T12:22:50.505Z,2.30
2024-05-09T12:27:56.385Z,2.57
2024-05-09T12:33:02.107Z,2.20
2024-05-09T12:38:07.943Z,1.90
2024-05-09T12:43:13.547Z,3.13
2024-05-09T12:48:19.575Z,2.00
2024-05-09T12:53:26.009Z,2.20
2024-05-09T12:58:31.899Z,3.17
2024-05-09T13:03:37.908Z,2.17
2024-05-09T13:08:44.180Z,2.30
2024-05-09T13:13:49.987Z,1.93
2024-05-09T13:18:55.549Z,2.87
2024-05-09T13:24:01.267Z,2.50
2024-05-09T13:29:07.045Z,2.20
2024-05-09T13:34:13.041Z,2.00
2024-05-09T13:39:18.713Z,2.83
2024-05-09T13:44:24.352Z,2.10
2024-05-09T13:49:30.253Z,1.80
2024-05-09T13:54:37.116Z,3.53
2024-05-09T13:59:42.929Z,2.03
2024-05-09T14:04:48.732Z,2.30
2024-05-09T14:09:54.729Z,2.10
2024-05-09T14:15:00.459Z,2.27
2024-05-09T14:20:09.461Z,1.87
2024-05-09T14:25:14.594Z,1.93
2024-05-09T14:30:30.131Z,2.53
2024-05-09T14:35:27.900Z,2.50
2024-05-09T14:40:41.232Z,1.77
2024-05-09T14:45:42.469Z,2.23
2024-05-09T14:50:48.778Z,2.50
2024-05-09T14:55:54.636Z,2.00
2024-05-09T15:01:00.590Z,2.37
2024-05-09T15:06:06.845Z,1.57
2024-05-09T15:11:12.600Z,1.57
2024-05-09T15:16:21.714Z,2.13
2024-05-09T15:21:27.489Z,2.10
2024-05-09T15:26:33.162Z,1.50
2024-05-09T15:31:38.770Z,1.70
2024-05-09T15:36:46.464Z,1.70
2024-05-09T15:41:56.851Z,1.73
2024-05-09T15:47:02.579Z,1.93
2024-05-09T15:52:08.497Z,2.37
2024-05-09T15:57:14.364Z,1.93
2024-05-09T16:02:21.356Z,3.17
2024-05-09T16:07:27.424Z,1.80
2024-05-09T16:12:33.139Z,3.40
2024-05-09T16:17:39.056Z,2.20
2024-05-09T16:22:46.171Z,2.30
2024-05-09T16:27:52.787Z,2.10
2024-05-09T16:32:58.738Z,1.93
2024-05-09T16:38:05.930Z,2.20
2024-05-09T16:43:13.612Z,2.63
2024-05-09T16:48:20.151Z,3.73
2024-05-09T16:53:26.419Z,3.37
2024-05-09T16:58:32.550Z,3.97
2024-05-09T17:03:38.479Z,2.87
2024-05-09T17:08:44.636Z,2.70
2024-05-09T17:13:50.287Z,2.97
2024-05-09T17:18:56.078Z,3.57
2024-05-09T17:24:01.736Z,3.07
2024-05-09T17:29:10.896Z,2.93
2024-05-09T17:34:14.941Z,3.77
2024-05-09T17:39:21.002Z,3.70
2024-05-09T17:44:27.986Z,3.23
2024-05-09T17:49:33.655Z,4.50
2024-05-09T17:54:39.532Z,3.83
2024-05-09T17:59:45.806Z,2.70
2024-05-09T18:04:51.549Z,3.40
2024-05-09T18:09:57.400Z,3.03
2024-05-09T18:15:03.643Z,2.70
2024-05-09T18:20:17.206Z,3.00
2024-05-09T18:25:17.655Z,3.00
2024-05-09T18:30:28.087Z,2.13
2024-05-09T18:35:30.912Z,2.50
2024-05-09T18:40:38.302Z,2.60
2024-05-09T18:45:44.668Z,3.80
2024-05-09T18:50:51.036Z,2.93
2024-05-09T18:55:56.988Z,2.97
2024-05-09T19:01:03.000Z,2.70
2024-05-09T19:06:08.960Z,2.70
2024-05-09T19:11:14.827Z,2.83
2024-05-09T19:16:20.867Z,4.77
2024-05-09T19:21:26.813Z,3.17
2024-05-09T19:26:32.706Z,3.40
2024-05-09T19:31:38.459Z,2.77
2024-05-09T19:36:44.272Z,2.47
2024-05-09T19:41:51.746Z,3.23
2024-05-09T19:46:57.520Z,3.30
2024-05-09T19:52:03.136Z,3.07
2024-05-09T19:57:09.370Z,3.10
2024-05-09T20:02:17.626Z,2.47
2024-05-09T20:07:23.690Z,3.17
2024-05-09T20:12:29.332Z,2.87
2024-05-09T20:17:35.226Z,2.50
2024-05-09T20:22:40.962Z,2.17
2024-05-09T20:27:46.687Z,2.50
2024-05-09T20:32:53.785Z,3.23
2024-05-09T20:37:59.720Z,2.13
2024-05-09T20:43:06.236Z,2.20
2024-05-09T20:48:12.455Z,2.60
2024-05-09T20:53:18.141Z,2.70
2024-05-09T20:58:24.935Z,2.50
2024-05-09T21:03:32.765Z,2.93
2024-05-09T21:08:38.630Z,2.23
2024-05-09T21:13:44.227Z,3.20
2024-05-09T21:18:49.830Z,3.03
2024-05-09T21:23:55.467Z,2.43
2024-05-09T21:29:01.194Z,3.63
2024-05-09T21:34:06.845Z,2.13
2024-05-09T21:39:12.632Z,3.60
2024-05-09T21:44:18.196Z,3.07
2024-05-09T21:49:23.960Z,2.60
2024-05-09T21:54:29.743Z,2.87
2024-05-09T21:59:35.449Z,3.47
2024-05-09T22:04:41.231Z,3.10
2024-05-09T22:09:47.087Z,2.57
2024-05-09T22:14:52.872Z,4.10
2024-05-09T22:19:58.489Z,2.50
2024-05-09T22:25:04.280Z,2.40
2024-05-09T22:30:14.695Z,2.60
2024-05-09T22:35:17.944Z,3.67
2024-05-09T22:40:32.275Z,3.27
2024-05-09T22:45:31.041Z,3.13
2024-05-09T22:50:36.729Z,2.57
2024-05-09T22:55:42.926Z,3.67
2024-05-09T23:00:48.980Z,3.70
2024-05-09T23:05:54.910Z,2.43
2024-05-09T23:11:00.902Z,2.23
2024-05-09T23:16:07.336Z,2.00
2024-05-09T23:21:13.168Z,2.90
2024-05-09T23:26:19.016Z,1.70
2024-05-09T23:31:24.939Z,2.00
2024-05-09T23:36:30.758Z,1.87
2024-05-09T23:41:36.634Z,1.97
2024-05-09T23:46:42.255Z,3.43
2024-05-09T23:51:48.135Z,2.73
2024-05-09T23:56:53.942Z,1.97
